Página principal
METAR-TAF:

METAR-TAF

Aeroportos :

Aeroporto de Berlim-Tegel

Berlin, Alemanha

latitude: 52-34N, longitude: 013-19E, altura: 37 m

Observação actual do tempo

O boletim foi feito há 13 minutos, às 10:20 UTC
Vento 8 kt de sudeste, variando entre este e sul
Temperatura 3°C
Humidade 32%
Pressão 1044 hPa
Visibilidade 10 km ou mais
sem nuvens abaixo de 1500 metros e sem cumulonimbus

METAR: EDDT 231020Z 14008KT 100V170 CAVOK 03/M12 Q1044 NOSIG

Hora: 11:33 (10:33 UTC)

Previsão

O boletim foi feito há 5 horas e 33 minutos, às 05:00 UTC
Previsão válida de 23 às 06 UTC a 24 às 06 UTC
Vento 4 kt de este
Visibilidade 10 km ou mais
sem nuvens abaixo de 1500 metros e sem cumulonimbus
Tornando-se
de 23 às 06 UTC a 23 às 09 UTC
Vento 7 kt de su-sudeste
Tornando-se
de 23 às 16 UTC a 23 às 19 UTC
Vento 2 kt com direcção variável

TAF: EDDT 230500Z 2306/2406 10004KT CAVOK BECMG 2306/2309 16007KT BECMG 2316/2319 VRB02KT

Observações e previsões do tempo de mais de 4000 aeroportos (mensagens METAR e TAF).

As estações disponíveis são os pontos amarelos e vermelhos sobre o mapa.

Mova o rato sobre o mapa para ver o nome da estação.

Depois clique no ponto para visualizar as observações e previsões meteorológicas.

Para alterar o mapa : clique nos botões verdes com uma cruz preta para aumentar o zoom; no botão verde com uma pitada de zoom; ou nas setas verdes para mapas adjacentes.


METAR-TAF: